Time;durP1;ratioP1;P1;durP2;ratioP2;P2;SDS_P1;SDS_P2;PMS_P1;PMS_P2;Temp;Humidity;BMP_temperature;BMP_pressure;BME280_temperature;BME280_humidity;BME280_pressure;Samples;Min_cycle;Max_cycle;Signal;HPM_P1;HPM_P2
2024/01/13 00:01:47;;;;;;;0.10;0.10;;;;;;;0.86;100.00;100243.88;5092150;28;20210;-52
2024/01/13 00:04:33;;;;;;;0.10;0.10;;;;;;;0.84;100.00;100236.06;5092393;28;20249;-51
2024/01/13 00:07:20;;;;;;;0.10;0.10;;;;;;;0.76;100.00;100245.69;5092717;28;20187;-51
2024/01/13 00:10:09;;;;;;;0.10;0.10;;;;;;;0.81;100.00;100243.94;5096012;28;20311;-52
2024/01/13 00:12:56;;;;;;;0.10;0.10;;;;;;;0.67;100.00;100239.66;5096226;28;20198;-52
2024/01/13 00:15:43;;;;;;;0.10;0.10;;;;;;;0.57;100.00;100236.25;5093431;28;20272;-52
2024/01/13 00:18:30;;;;;;;0.00;0.00;;;;;;;0.80;100.00;100233.53;5095913;28;20195;-51
2024/01/13 00:21:26;;;;;;;0.10;0.10;;;;;;;1.01;100.00;100228.13;5094462;28;20306;-51
2024/01/13 00:24:13;;;;;;;0.10;0.10;;;;;;;1.11;100.00;100240.22;5096044;28;20194;-52
2024/01/13 00:27:01;;;;;;;0.10;0.10;;;;;;;1.05;100.00;100227.22;5095775;28;20187;-52
2024/01/13 00:29:48;;;;;;;0.10;0.10;;;;;;;1.05;100.00;100221.13;5080457;28;20198;-51
2024/01/13 00:32:35;;;;;;;0.10;0.10;;;;;;;1.07;100.00;100225.50;5095715;28;20711;-52
2024/01/13 00:35:22;;;;;;;0.10;0.10;;;;;;;0.94;100.00;100215.16;5095312;28;20211;-52
2024/01/13 00:38:08;;;;;;;0.10;0.10;;;;;;;0.89;100.00;100209.97;5095441;28;20198;-52
2024/01/13 00:40:59;;;;;;;0.10;0.10;;;;;;;1.27;100.00;100204.44;5095143;28;20214;-52
2024/01/13 00:43:48;;;;;;;0.10;0.10;;;;;;;1.02;100.00;100202.91;5095371;28;20199;-52
2024/01/13 00:46:34;;;;;;;0.10;0.10;;;;;;;0.75;100.00;100197.03;5095521;28;20195;-51
2024/01/13 00:49:21;;;;;;;0.10;0.10;;;;;;;0.80;100.00;100197.88;5095454;28;20199;-51
2024/01/13 00:52:09;;;;;;;0.10;0.10;;;;;;;0.82;100.00;100197.84;5093997;28;20202;-51
2024/01/13 00:54:56;;;;;;;0.10;0.10;;;;;;;0.85;100.00;100192.63;5095307;28;20198;-52
2024/01/13 00:57:43;;;;;;;0.10;0.10;;;;;;;0.92;100.00;100186.47;5095230;28;20194;-52
2024/01/13 01:00:31;;;;;;;0.10;0.10;;;;;;;1.06;100.00;100186.34;5095237;28;20217;-52
2024/01/13 01:03:18;;;;;;;0.10;0.10;;;;;;;1.93;100.00;100182.81;5094839;28;20203;-52
2024/01/13 01:06:05;;;;;;;0.10;0.10;;;;;;;1.60;100.00;100176.25;5093696;28;20187;-51
2024/01/13 01:08:52;;;;;;;0.10;0.10;;;;;;;1.42;100.00;100182.53;5094973;28;20191;-52
2024/01/13 01:11:39;;;;;;;0.10;0.10;;;;;;;1.19;100.00;100180.16;5095035;28;20183;-51
2024/01/13 01:14:26;;;;;;;0.10;0.10;;;;;;;1.25;100.00;100174.00;5094953;28;20214;-52
2024/01/13 01:17:14;;;;;;;0.10;0.10;;;;;;;1.14;100.00;100176.72;5094430;28;20214;-52
2024/01/13 01:20:01;;;;;;;0.10;0.10;;;;;;;1.39;100.00;100169.50;5093892;28;20190;-52
2024/01/13 01:22:48;;;;;;;0.10;0.10;;;;;;;1.15;100.00;100173.22;5093040;28;20300;-51
2024/01/13 01:25:35;;;;;;;0.00;0.00;;;;;;;1.27;100.00;100167.91;5094743;28;20317;-52
2024/01/13 01:28:22;;;;;;;0.10;0.10;;;;;;;1.27;100.00;100167.03;5094564;28;20661;-52
2024/01/13 01:31:19;;;;;;;0.10;0.10;;;;;;;1.02;100.00;100162.03;5094571;28;20207;-52
2024/01/13 01:34:08;;;;;;;0.10;0.10;;;;;;;1.08;100.00;100154.16;5074311;28;20289;-52
2024/01/13 01:36:54;;;;;;;0.10;0.10;;;;;;;1.02;100.00;100153.34;5072657;28;20272;-52
2024/01/13 01:39:41;;;;;;;0.00;0.00;;;;;;;1.31;100.00;100146.09;5074203;28;20694;-52
2024/01/13 01:42:28;;;;;;;0.10;0.10;;;;;;;1.26;100.00;100149.66;5082575;28;20191;-52
2024/01/13 01:45:15;;;;;;;0.10;0.10;;;;;;;1.14;100.00;100151.47;5094272;28;20752;-52
2024/01/13 01:48:07;;;;;;;0.00;0.00;;;;;;;1.31;100.00;100147.84;5078876;28;20278;-54
2024/01/13 01:51:02;;;;;;;0.10;0.10;;;;;;;1.05;100.00;100145.50;5092922;28;20195;-51
2024/01/13 01:53:50;;;;;;;0.10;0.10;;;;;;;1.00;100.00;100139.47;5094074;28;20194;-52
2024/01/13 01:56:39;;;;;;;0.10;0.10;;;;;;;0.95;100.00;100144.72;5093835;28;20218;-52
2024/01/13 01:59:26;;;;;;;0.10;0.10;;;;;;;1.09;100.00;100142.00;5094099;28;20195;-52
2024/01/13 02:02:13;;;;;;;0.10;0.10;;;;;;;1.03;100.00;100142.03;5094079;28;20195;-52
2024/01/13 02:05:02;;;;;;;0.10;0.10;;;;;;;1.59;100.00;100140.56;5093708;28;20194;-52
2024/01/13 02:07:50;;;;;;;0.10;0.10;;;;;;;0.90;100.00;100130.88;5092575;28;20183;-51
2024/01/13 02:10:37;;;;;;;0.10;0.10;;;;;;;0.91;100.00;100137.81;5093919;28;20219;-52
2024/01/13 02:13:24;;;;;;;0.10;0.10;;;;;;;1.03;100.00;100132.47;5093667;28;20280;-52
2024/01/13 02:16:12;;;;;;;0.10;0.10;;;;;;;0.98;100.00;100134.28;5094262;28;20265;-52
2024/01/13 02:18:59;;;;;;;0.10;0.10;;;;;;;1.01;100.00;100130.75;5092133;28;20322;-51
2024/01/13 02:21:47;;;;;;;0.10;0.10;;;;;;;0.97;100.00;100135.16;5092116;28;20252;-52
2024/01/13 02:24:35;;;;;;;0.10;0.10;;;;;;;1.01;100.00;100136.84;5093611;28;20266;-51
2024/01/13 02:27:24;;;;;;;0.10;0.10;;;;;;;0.68;100.00;100134.53;5093489;28;20318;-51
2024/01/13 02:30:12;;;;;;;0.10;0.10;;;;;;;0.75;100.00;100136.19;5093337;28;20195;-52
2024/01/13 02:32:59;;;;;;;0.10;0.10;;;;;;;0.78;100.00;100128.38;5091418;28;20203;-51
2024/01/13 02:35:46;;;;;;;0.00;0.00;;;;;;;0.78;100.00;100129.25;5092000;28;20277;-52
2024/01/13 02:38:35;;;;;;;0.07;0.07;;;;;;;0.67;100.00;100125.84;5090644;28;20240;-51
2024/01/13 02:41:24;;;;;;;0.10;0.10;;;;;;;0.79;100.00;100127.50;5073999;28;20196;-52
2024/01/13 02:44:11;;;;;;;0.10;0.10;;;;;;;0.78;100.00;100128.38;5093239;28;20191;-52
2024/01/13 02:46:58;;;;;;;0.10;0.10;;;;;;;0.71;100.00;100130.16;5093048;28;20258;-51
2024/01/13 02:49:45;;;;;;;0.00;0.00;;;;;;;0.98;100.00;100128.19;5093221;28;20240;-52
2024/01/13 02:52:31;;;;;;;0.10;0.10;;;;;;;0.88;100.00;100129.16;5091884;28;20206;-52
2024/01/13 02:55:20;;;;;;;0.00;0.00;;;;;;;0.89;100.00;100123.94;5093186;28;20677;-51
2024/01/13 02:58:07;;;;;;;0.10;0.10;;;;;;;0.83;100.00;100130.03;5092758;28;20325;-52
2024/01/13 03:00:53;;;;;;;0.10;0.10;;;;;;;0.71;100.00;100126.69;5093056;28;20317;-52
2024/01/13 03:03:41;;;;;;;0.10;0.10;;;;;;;0.73;100.00;100117.97;5093173;28;20400;-52
2024/01/13 03:06:28;;;;;;;0.10;0.10;;;;;;;0.81;100.00;100110.09;5091704;28;20183;-52
2024/01/13 03:09:15;;;;;;;0.00;0.00;;;;;;;0.78;100.00;100105.78;5092859;28;20198;-51
2024/01/13 03:12:03;;;;;;;0.00;0.00;;;;;;;0.82;100.00;100102.25;5092822;28;20199;-52
2024/01/13 03:14:50;;;;;;;0.10;0.10;;;;;;;0.87;100.00;100091.78;5092967;28;20279;-51
2024/01/13 03:17:37;;;;;;;0.10;0.10;;;;;;;1.15;100.00;100089.72;5092671;28;20206;-52
2024/01/13 03:20:24;;;;;;;0.03;0.03;;;;;;;0.84;100.00;100094.41;5092649;28;20241;-51
2024/01/13 03:23:11;;;;;;;0.10;0.10;;;;;;;0.79;100.00;100084.03;5092452;28;20226;-51
2024/01/13 03:25:57;;;;;;;0.10;0.10;;;;;;;0.76;100.00;100073.59;5092913;28;20187;-51
2024/01/13 03:28:46;;;;;;;0.10;0.10;;;;;;;0.74;100.00;100075.38;5092755;28;20206;-51
2024/01/13 03:31:32;;;;;;;0.10;0.10;;;;;;;0.75;100.00;100069.28;5092860;28;20207;-52
2024/01/13 03:34:19;;;;;;;0.00;0.00;;;;;;;0.55;100.00;100066.84;5092757;28;20213;-52
2024/01/13 03:37:06;;;;;;;0.00;0.00;;;;;;;0.73;100.00;100060.59;5091262;28;20211;-52
2024/01/13 03:39:53;;;;;;;0.00;0.00;;;;;;;0.75;100.00;100071.03;5092785;28;20688;-52
2024/01/13 03:42:40;;;;;;;0.10;0.10;;;;;;;0.91;100.00;100063.94;5095038;28;20194;-52
2024/01/13 03:45:28;;;;;;;0.10;0.10;;;;;;;0.69;100.00;100064.13;5096715;28;20202;-52
2024/01/13 03:48:15;;;;;;;0.10;0.10;;;;;;;0.73;100.00;100058.00;5096547;28;20198;-51
2024/01/13 03:51:02;;;;;;;0.00;0.00;;;;;;;0.94;100.00;100069.09;5095286;28;20553;-51
2024/01/13 03:53:51;;;;;;;0.10;0.10;;;;;;;1.11;100.00;100065.44;5096502;28;20199;-51
2024/01/13 03:56:38;;;;;;;0.10;0.10;;;;;;;1.43;100.00;100051.13;5096389;28;20791;-51
2024/01/13 03:59:24;;;;;;;0.10;0.10;;;;;;;1.27;100.00;100047.00;5096439;28;20306;-51
2024/01/13 04:02:13;;;;;;;0.10;0.10;;;;;;;1.17;100.00;100034.94;5096296;28;20195;-51
2024/01/13 04:05:00;;;;;;;0.10;0.10;;;;;;;1.11;100.00;100026.31;5096329;28;20206;-52
2024/01/13 04:07:47;;;;;;;0.00;0.00;;;;;;;1.06;100.00;100016.78;5094816;28;20195;-52
2024/01/13 04:10:34;;;;;;;0.00;0.00;;;;;;;1.01;100.00;100016.00;5096211;28;20253;-51
2024/01/13 04:13:21;;;;;;;0.10;0.10;;;;;;;1.07;100.00;100011.59;5096096;28;20283;-51
2024/01/13 04:16:08;;;;;;;0.10;0.10;;;;;;;1.20;100.00;100007.06;5096118;28;20211;-51
2024/01/13 04:18:57;;;;;;;0.10;0.10;;;;;;;1.11;100.00;100009.78;5075689;28;20192;-51
2024/01/13 04:21:45;;;;;;;0.10;0.10;;;;;;;1.10;100.00;100011.53;5074347;28;20234;-52
2024/01/13 04:24:32;;;;;;;0.10;0.10;;;;;;;1.22;100.00;100014.88;5075726;28;20199;-51
2024/01/13 04:27:19;;;;;;;0.03;0.03;;;;;;;1.06;100.00;100011.56;5082219;28;20304;-51
2024/01/13 04:30:07;;;;;;;0.10;0.10;;;;;;;1.02;100.00;100002.06;5095548;28;20203;-52
2024/01/13 04:32:54;;;;;;;0.10;0.10;;;;;;;1.03;100.00;100003.78;5095664;28;20194;-52
2024/01/13 04:35:42;;;;;;;0.00;0.00;;;;;;;1.16;100.00;100002.78;5094368;28;20220;-52
2024/01/13 04:38:29;;;;;;;0.10;0.10;;;;;;;1.11;100.00;100005.44;5095211;28;20218;-52
2024/01/13 04:41:16;;;;;;;0.00;0.00;;;;;;;1.23;100.00;99999.19;5095736;28;20207;-51
2024/01/13 04:44:03;;;;;;;0.00;0.00;;;;;;;1.49;100.00;99992.78;5095449;28;20381;-51
2024/01/13 04:46:50;;;;;;;0.03;0.03;;;;;;;1.14;100.00;99975.81;5095333;28;20199;-51
2024/01/13 04:49:37;;;;;;;0.00;0.00;;;;;;;1.03;100.00;99980.31;5087542;28;20195;-52
2024/01/13 04:52:25;;;;;;;0.10;0.10;;;;;;;1.20;100.00;99985.34;5073821;28;20204;-51
2024/01/13 04:55:12;;;;;;;0.00;0.00;;;;;;;1.36;100.00;99986.88;5075163;28;20553;-52
2024/01/13 04:57:59;;;;;;;0.00;0.00;;;;;;;1.56;100.00;99987.47;5086750;28;20222;-51
2024/01/13 05:00:46;;;;;;;0.03;0.03;;;;;;;1.52;100.00;99980.53;5095350;28;20366;-52
2024/01/13 05:03:33;;;;;;;0.00;0.00;;;;;;;1.79;100.00;99961.00;5095244;28;20265;-52
2024/01/13 05:06:20;;;;;;;0.00;0.00;;;;;;;1.40;100.00;99958.09;5093668;28;20199;-52
2024/01/13 05:09:09;;;;;;;0.07;0.07;;;;;;;1.29;100.00;99949.53;5074806;28;20300;-52
2024/01/13 05:11:56;;;;;;;0.00;0.00;;;;;;;1.25;100.00;99942.63;5074819;28;20272;-51
2024/01/13 05:14:42;;;;;;;0.00;0.00;;;;;;;1.25;100.00;99950.44;5074436;28;20219;-51
2024/01/13 05:17:29;;;;;;;0.00;0.00;;;;;;;1.31;100.00;99955.59;5082007;28;20300;-51
2024/01/13 05:20:16;;;;;;;0.10;0.10;;;;;;;1.34;100.00;99960.78;5094888;28;20325;-51
2024/01/13 05:23:04;;;;;;;0.10;0.10;;;;;;;1.66;100.00;99954.25;5094290;28;20799;-52
2024/01/13 05:25:52;;;;;;;0.10;0.10;;;;;;;1.53;100.00;99945.72;5079273;28;20203;-51
2024/01/13 05:28:39;;;;;;;0.10;0.10;;;;;;;1.58;100.00;99936.06;5077081;28;20199;-51
2024/01/13 05:31:26;;;;;;;0.10;0.10;;;;;;;1.78;100.00;99929.69;5074040;28;20195;-52
2024/01/13 05:34:13;;;;;;;0.00;0.00;;;;;;;1.05;100.00;99923.78;5074413;28;20199;-51
2024/01/13 05:37:00;;;;;;;0.10;0.10;;;;;;;1.35;100.00;99935.53;5076052;28;20191;-51
2024/01/13 05:39:47;;;;;;;0.00;0.00;;;;;;;1.52;100.00;99923.09;5094168;28;20258;-51
2024/01/13 05:42:35;;;;;;;0.10;0.10;;;;;;;1.43;100.00;99918.88;5094374;28;20195;-52
2024/01/13 05:45:22;;;;;;;0.10;0.10;;;;;;;1.65;100.00;99915.97;5094223;28;20191;-52
2024/01/13 05:48:09;;;;;;;0.10;0.10;;;;;;;1.67;100.00;99933.31;5081280;28;20318;-51
2024/01/13 05:50:56;;;;;;;0.10;0.10;;;;;;;1.42;100.00;99926.75;5072566;28;20192;-51
2024/01/13 05:53:44;;;;;;;0.10;0.10;;;;;;;1.48;100.00;99918.81;5073737;28;20242;-52
2024/01/13 05:56:31;;;;;;;0.10;0.10;;;;;;;1.51;100.00;99925.75;5073549;28;20246;-51
2024/01/13 05:59:19;;;;;;;0.10;0.10;;;;;;;1.67;100.00;99925.50;5053527;28;20216;-51
2024/01/13 06:02:06;;;;;;;0.10;0.10;;;;;;;1.29;100.00;99940.84;5053775;28;20240;-52
2024/01/13 06:04:53;;;;;;;0.10;0.10;;;;;;;1.57;100.00;99936.09;5052931;28;20196;-52
2024/01/13 06:07:40;;;;;;;0.10;0.10;;;;;;;1.68;100.00;99934.19;5068685;28;20238;-52
2024/01/13 06:10:30;;;;;;;0.00;0.00;;;;;;;1.81;100.00;99927.88;5093904;28;20194;-51
2024/01/13 06:13:16;;;;;;;0.10;0.10;;;;;;;1.50;100.00;99916.19;5093641;28;20203;-51
2024/01/13 06:16:05;;;;;;;0.10;0.10;;;;;;;1.37;100.00;99919.00;5093598;28;20195;-52
2024/01/13 06:18:52;;;;;;;0.00;0.00;;;;;;;1.40;100.00;99918.06;5075115;28;20215;-52
2024/01/13 06:21:42;;;;;;;0.10;0.10;;;;;;;1.50;100.00;99913.59;5074811;28;20581;-51
2024/01/13 06:24:29;;;;;;;0.10;0.10;;;;;;;1.68;100.00;99911.56;5093680;28;20769;-52
2024/01/13 06:27:16;;;;;;;0.10;0.10;;;;;;;1.62;100.00;99916.00;5093357;28;20202;-52
2024/01/13 06:30:04;;;;;;;0.10;0.10;;;;;;;1.68;100.00;99905.47;5093395;28;20201;-51
2024/01/13 06:32:52;;;;;;;0.10;0.10;;;;;;;1.47;100.00;99900.59;5093526;28;20191;-52
2024/01/13 06:35:39;;;;;;;0.10;0.10;;;;;;;1.51;100.00;99900.50;5091773;28;20261;-52
2024/01/13 06:38:26;;;;;;;0.10;0.10;;;;;;;1.43;100.00;99895.38;5092968;28;20211;-52
2024/01/13 06:41:13;;;;;;;0.03;0.03;;;;;;;1.54;100.00;99896.97;5089740;28;20268;-52
2024/01/13 06:44:00;;;;;;;0.10;0.10;;;;;;;1.57;100.00;99889.97;5077848;28;20195;-52
2024/01/13 06:46:47;;;;;;;0.10;0.10;;;;;;;1.72;100.00;99888.84;5093093;28;20203;-51
2024/01/13 06:49:35;;;;;;;0.10;0.10;;;;;;;2.09;100.00;99896.06;5092813;28;20237;-52
2024/01/13 06:52:22;;;;;;;0.10;0.10;;;;;;;1.99;100.00;99893.63;5091859;28;20210;-52
2024/01/13 06:55:09;;;;;;;0.10;0.10;;;;;;;1.78;100.00;99898.34;5093047;28;20190;-51
2024/01/13 06:57:56;;;;;;;0.10;0.10;;;;;;;2.06;100.00;99897.00;5092804;28;20194;-52
2024/01/13 07:00:43;;;;;;;0.00;0.00;;;;;;;2.14;100.00;99886.41;5077630;28;20198;-51
2024/01/13 07:03:31;;;;;;;0.10;0.10;;;;;;;2.40;100.00;99902.44;5093014;28;20194;-51
2024/01/13 07:06:19;;;;;;;0.10;0.10;;;;;;;2.44;100.00;99901.50;5091616;28;20269;-52
2024/01/13 07:09:06;;;;;;;0.10;0.10;;;;;;;2.36;100.00;99886.88;5092907;28;20757;-52
2024/01/13 07:11:53;;;;;;;0.10;0.10;;;;;;;2.10;100.00;99884.72;5092919;28;20613;-51
2024/01/13 07:14:40;;;;;;;0.10;0.10;;;;;;;1.78;100.00;99882.69;5092961;28;20199;-51
2024/01/13 07:17:27;;;;;;;0.00;0.00;;;;;;;1.85;100.00;99882.56;5094869;28;20194;-52
2024/01/13 07:20:14;;;;;;;0.10;0.10;;;;;;;1.87;100.00;99877.31;5096626;28;20227;-52
2024/01/13 07:23:03;;;;;;;0.10;0.10;;;;;;;1.85;100.00;99884.31;5082058;28;20230;-52
2024/01/13 07:25:50;;;;;;;0.00;0.00;;;;;;;2.37;100.00;99886.84;5076682;28;20310;-52
2024/01/13 07:28:37;;;;;;;0.10;0.10;;;;;;;2.30;100.00;99885.22;5076421;28;20195;-51
2024/01/13 07:31:24;;;;;;;0.10;0.10;;;;;;;2.45;100.00;99879.72;5076681;28;20545;-51
2024/01/13 07:34:11;;;;;;;0.00;0.00;;;;;;;2.42;100.00;99878.91;5076495;28;20220;-51
2024/01/13 07:36:58;;;;;;;0.10;0.10;;;;;;;2.32;100.00;99870.41;5074900;28;20588;-51
2024/01/13 07:39:46;;;;;;;0.10;0.10;;;;;;;2.64;100.00;99874.13;5061151;28;20301;-51
2024/01/13 07:42:33;;;;;;;0.00;0.00;;;;;;;2.55;100.00;99875.16;5076593;28;20262;-51
2024/01/13 07:45:20;;;;;;;0.10;0.10;;;;;;;2.53;100.00;99864.75;5076281;28;20258;-51
2024/01/13 07:48:07;;;;;;;0.10;0.10;;;;;;;2.45;100.00;99860.56;5076118;28;20299;-51
2024/01/13 07:50:54;;;;;;;0.10;0.10;;;;;;;2.30;100.00;99849.47;5075014;28;20194;-52
2024/01/13 07:53:40;;;;;;;0.00;0.00;;;;;;;2.29;100.00;99845.16;5076268;28;20199;-51
2024/01/13 07:56:29;;;;;;;0.10;0.10;;;;;;;2.24;100.00;99848.75;5076114;28;20264;-52
2024/01/13 07:59:16;;;;;;;0.10;0.10;;;;;;;2.40;100.00;99854.53;5075609;28;20219;-52
2024/01/13 08:02:03;;;;;;;0.10;0.10;;;;;;;2.33;100.00;99855.56;5075969;28;20199;-51
2024/01/13 08:04:50;;;;;;;0.10;0.10;;;;;;;2.29;100.00;99844.28;5075989;28;20195;-51
2024/01/13 08:07:37;;;;;;;0.10;0.10;;;;;;;2.44;100.00;99836.16;5074504;28;20191;-51
2024/01/13 08:10:24;;;;;;;0.10;0.10;;;;;;;2.58;100.00;99838.47;5075935;28;20239;-51
2024/01/13 08:13:12;;;;;;;0.10;0.10;;;;;;;2.46;100.00;99838.75;5075878;28;20195;-52
2024/01/13 08:15:59;;;;;;;0.10;0.10;;;;;;;2.58;100.00;99826.25;5075824;28;20315;-51
2024/01/13 08:18:45;;;;;;;0.10;0.10;;;;;;;2.44;100.00;99825.72;5075468;28;20220;-51
2024/01/13 08:21:32;;;;;;;0.10;0.10;;;;;;;2.30;100.00;99818.13;5076398;28;20195;-51
2024/01/13 08:24:25;;;;;;;0.10;0.10;;;;;;;2.25;100.00;99812.13;5095873;28;20194;-51
2024/01/13 08:27:12;;;;;;;0.10;0.10;;;;;;;2.44;100.00;99814.38;5093321;28;20310;-51
2024/01/13 08:30:00;;;;;;;0.10;0.10;;;;;;;2.43;100.00;99829.22;5075436;28;20677;-51
2024/01/13 08:32:47;;;;;;;0.10;0.10;;;;;;;2.63;100.00;99828.81;5075442;28;20287;-51
2024/01/13 08:35:35;;;;;;;0.00;0.00;;;;;;;2.57;100.00;99821.06;5056703;28;20302;-51
2024/01/13 08:38:21;;;;;;;0.10;0.10;;;;;;;2.61;100.00;99814.91;5086457;28;20199;-52
2024/01/13 08:41:08;;;;;;;0.10;0.10;;;;;;;2.61;100.00;99809.69;5092104;28;20261;-51
2024/01/13 08:43:59;;;;;;;0.10;0.10;;;;;;;2.54;100.00;99810.69;5095660;28;20210;-52
2024/01/13 08:46:47;;;;;;;0.10;0.10;;;;;;;2.43;100.00;99817.91;5095541;28;20197;-51
2024/01/13 08:49:34;;;;;;;0.00;0.00;;;;;;;2.60;100.00;99805.31;5054943;28;20200;-52
2024/01/13 08:52:21;;;;;;;0.10;0.10;;;;;;;2.54;100.00;99808.06;5053641;28;20275;-51
2024/01/13 08:55:08;;;;;;;0.10;0.10;;;;;;;2.52;100.00;99791.56;5055061;28;20197;-51
2024/01/13 08:57:55;;;;;;;0.10;0.10;;;;;;;2.54;100.00;99798.47;5070133;28;20199;-51
2024/01/13 09:00:42;;;;;;;0.10;0.10;;;;;;;2.68;100.00;99820.84;5094949;28;20219;-52
2024/01/13 09:03:31;;;;;;;0.10;0.10;;;;;;;2.68;100.00;99794.69;5095221;28;20218;-51
2024/01/13 09:06:18;;;;;;;0.10;0.10;;;;;;;2.86;100.00;99773.34;5093458;28;20195;-52
2024/01/13 09:09:05;;;;;;;0.10;0.10;;;;;;;2.45;100.00;99753.38;5077449;28;20212;-51
2024/01/13 09:11:53;;;;;;;0.10;0.10;;;;;;;2.59;100.00;99748.69;5074687;28;20199;-52
2024/01/13 09:14:40;;;;;;;0.10;0.10;;;;;;;2.57;100.00;99740.00;5074047;28;20223;-51
2024/01/13 09:17:27;;;;;;;0.10;0.10;;;;;;;2.55;100.00;99733.97;5077993;28;20198;-52
2024/01/13 09:20:15;;;;;;;0.10;0.10;;;;;;;2.38;100.00;99752.63;5094644;28;20226;-51
2024/01/13 09:23:02;;;;;;;0.10;0.10;;;;;;;2.30;100.00;99767.59;5094394;28;20223;-52
2024/01/13 09:25:49;;;;;;;0.10;0.10;;;;;;;2.37;100.00;99792.72;5094747;28;20305;-50
2024/01/13 09:28:36;;;;;;;0.10;0.10;;;;;;;2.73;100.00;99809.41;5081621;28;20220;-52
2024/01/13 09:31:23;;;;;;;0.10;0.10;;;;;;;2.55;100.00;99778.41;5074202;28;20709;-51
2024/01/13 09:34:24;;;;;;;0.10;0.10;;;;;;;2.49;100.00;99768.06;5074384;28;20195;-51
2024/01/13 09:37:14;;;;;;;0.10;0.10;;;;;;;2.47;100.00;99775.09;5073944;28;20195;-51
2024/01/13 09:40:01;;;;;;;0.10;0.10;;;;;;;2.42;100.00;99769.97;5093157;28;20213;-51
2024/01/13 09:42:54;;;;;;;0.10;0.10;;;;;;;2.61;100.00;99761.75;5094387;28;20203;-51
2024/01/13 09:45:44;;;;;;;0.10;0.10;;;;;;;2.65;100.00;99739.84;5094329;28;20191;-51
2024/01/13 09:48:31;;;;;;;0.10;0.10;;;;;;;2.67;100.00;99735.44;5082024;28;20208;-51
2024/01/13 09:51:18;;;;;;;0.10;0.10;;;;;;;2.51;100.00;99753.22;5072508;28;20203;-51
2024/01/13 09:54:24;;;;;;;0.10;0.10;;;;;;;2.74;100.00;99745.72;5073646;28;20203;-51
2024/01/13 09:57:12;;;;;;;0.10;0.10;;;;;;;2.55;100.00;99734.81;5074350;28;20195;-51
2024/01/13 09:59:59;;;;;;;0.10;0.10;;;;;;;2.50;100.00;99734.06;5093929;28;20207;-52
2024/01/13 10:02:46;;;;;;;0.10;0.10;;;;;;;2.54;100.00;99727.03;5093648;28;20191;-52
2024/01/13 10:05:33;;;;;;;0.10;0.10;;;;;;;2.58;100.00;99711.22;5092672;28;20563;-51
2024/01/13 10:08:27;;;;;;;0.10;0.10;;;;;;;2.67;100.00;99690.97;5083933;28;20203;-52
2024/01/13 10:11:15;;;;;;;0.10;0.10;;;;;;;2.51;100.00;99699.19;5073274;28;20187;-52
2024/01/13 10:14:16;;;;;;;0.10;0.10;;;;;;;2.61;100.00;99710.31;5073426;28;20210;-51
2024/01/13 10:17:04;;;;;;;0.10;0.10;;;;;;;2.50;100.00;99707.06;5073465;28;20198;-51
2024/01/13 10:19:52;;;;;;;0.10;0.10;;;;;;;2.62;100.00;99714.63;5053379;28;20301;-51
2024/01/13 10:22:39;;;;;;;0.10;0.10;;;;;;;2.59;100.00;99693.78;5063391;28;20223;-51
2024/01/13 10:25:26;;;;;;;0.10;0.10;;;;;;;2.62;100.00;99714.63;5073287;28;20315;-52
2024/01/13 10:28:16;;;;;;;0.10;0.10;;;;;;;2.77;100.00;99716.88;5081961;28;20196;-52
2024/01/13 10:31:02;;;;;;;0.10;0.10;;;;;;;2.64;100.00;99735.53;5093244;28;20190;-51
2024/01/13 10:33:50;;;;;;;0.10;0.10;;;;;;;2.69;100.00;99726.66;5090238;28;20195;-52
2024/01/13 10:36:38;;;;;;;0.10;0.10;;;;;;;2.87;100.00;99720.13;5090998;28;20254;-52
2024/01/13 10:39:25;;;;;;;0.10;0.10;;;;;;;2.90;100.00;99714.00;5092429;28;20195;-51
2024/01/13 10:42:18;;;;;;;0.10;0.10;;;;;;;2.95;100.00;99709.50;5092024;28;20195;-51
2024/01/13 10:45:09;;;;;;;0.10;0.10;;;;;;;2.89;100.00;99710.50;5092066;28;20207;-52
2024/01/13 10:48:04;;;;;;;0.00;0.00;;;;;;;2.71;100.00;99701.34;5091979;28;20198;-52
2024/01/13 10:50:51;;;;;;;0.10;0.10;;;;;;;2.88;100.00;99709.63;5090925;28;20721;-52
2024/01/13 10:53:39;;;;;;;0.10;0.10;;;;;;;3.17;100.00;99689.75;5092510;28;20206;-51
2024/01/13 10:56:28;;;;;;;0.10;0.10;;;;;;;3.01;100.00;99683.19;5092245;28;20187;-52
2024/01/13 10:59:16;;;;;;;0.10;0.10;;;;;;;3.22;100.00;99682.66;5092315;28;20195;-51
2024/01/13 11:02:11;;;;;;;0.10;0.10;;;;;;;2.99;100.00;99675.41;5091540;28;20735;-51
2024/01/13 11:05:00;;;;;;;0.10;0.10;;;;;;;3.00;100.00;99660.56;5092102;28;20600;-52
2024/01/13 11:07:47;;;;;;;0.10;0.10;;;;;;;2.80;100.00;99647.97;5092173;28;20199;-52
2024/01/13 11:10:38;;;;;;;0.10;0.10;;;;;;;2.79;100.00;99654.06;5092235;28;20261;-54
2024/01/13 11:13:28;;;;;;;0.10;0.10;;;;;;;2.79;100.00;99641.84;5092288;28;20191;-51
2024/01/13 11:16:19;;;;;;;0.10;0.10;;;;;;;2.80;100.00;99640.13;5092920;28;20199;-51
2024/01/13 11:19:08;;;;;;;0.10;0.10;;;;;;;2.78;100.00;99642.75;5088195;28;20202;-51
2024/01/13 11:21:55;;;;;;;0.10;0.10;;;;;;;3.02;100.00;99643.03;5090997;28;20273;-51
2024/01/13 11:24:48;;;;;;;0.00;0.00;;;;;;;2.85;100.00;99644.31;5090324;28;20198;-51
2024/01/13 11:27:35;;;;;;;0.10;0.10;;;;;;;2.91;100.00;99648.56;5074584;28;20204;-52
2024/01/13 11:30:35;;;;;;;0.10;0.10;;;;;;;2.96;100.00;99651.03;5091775;28;20194;-54
2024/01/13 11:33:26;;;;;;;0.10;0.10;;;;;;;2.76;100.00;99649.78;5092120;28;20194;-54
2024/01/13 11:36:14;;;;;;;0.10;0.10;;;;;;;2.97;100.00;99648.38;5075060;28;20199;-51
2024/01/13 11:39:06;;;;;;;0.10;0.10;;;;;;;2.79;100.00;99638.38;5090832;28;20199;-52
2024/01/13 11:41:54;;;;;;;0.07;0.07;;;;;;;3.04;100.00;99629.03;5091523;28;20222;-51
2024/01/13 11:44:44;;;;;;;0.10;0.10;;;;;;;3.03;100.00;99629.91;5089115;28;20257;-51
2024/01/13 11:47:31;;;;;;;0.10;0.10;;;;;;;3.00;100.00;99613.47;5092319;28;20206;-52
2024/01/13 11:50:35;;;;;;;0.10;0.10;;;;;;;3.12;100.00;99608.75;5075945;28;20317;-52
2024/01/13 11:53:39;;;;;;;0.10;0.10;;;;;;;3.14;100.00;99617.41;5092255;28;20191;-51
2024/01/13 11:56:27;;;;;;;0.10;0.10;;;;;;;2.96;100.00;99607.41;5092420;28;20190;-52
2024/01/13 11:59:16;;;;;;;0.10;0.10;;;;;;;3.01;100.00;99604.69;5092367;28;20191;-52
2024/01/13 12:02:03;;;;;;;0.10;0.10;;;;;;;2.73;100.00;99597.56;5092139;28;20222;-51
2024/01/13 12:04:50;;;;;;;0.10;0.10;;;;;;;2.87;100.00;99591.97;5096202;28;20187;-51
2024/01/13 12:07:39;;;;;;;0.10;0.10;;;;;;;2.82;100.00;99589.47;5095298;28;20190;-51
2024/01/13 12:10:28;;;;;;;0.10;0.10;;;;;;;2.82;100.00;99580.78;5096102;28;20234;-51
2024/01/13 12:13:16;;;;;;;0.10;0.10;;;;;;;2.61;100.00;99573.47;5096109;28;20259;-51
2024/01/13 12:16:08;;;;;;;0.10;0.10;;;;;;;2.63;100.00;99561.22;5096012;28;20199;-52
2024/01/13 12:18:56;;;;;;;0.10;0.10;;;;;;;2.63;100.00;99556.84;5095675;28;20565;-51
2024/01/13 12:21:42;;;;;;;0.10;0.10;;;;;;;2.70;100.00;99561.03;5094407;28;20253;-52
2024/01/13 12:24:33;;;;;;;0.10;0.10;;;;;;;2.67;100.00;99550.63;5095764;28;20195;-51
2024/01/13 12:27:23;;;;;;;0.10;0.10;;;;;;;2.83;100.00;99543.25;5095528;28;20191;-52
2024/01/13 12:30:11;;;;;;;0.10;0.10;;;;;;;2.90;100.00;99541.34;5075552;28;20215;-51
2024/01/13 12:32:58;;;;;;;0.10;0.10;;;;;;;2.82;100.00;99525.84;5075396;28;20251;-51
2024/01/13 12:35:45;;;;;;;0.10;0.10;;;;;;;2.78;100.00;99532.91;5074212;28;20210;-51
2024/01/13 12:38:32;;;;;;;0.10;0.10;;;;;;;2.54;100.00;99523.94;5082887;28;20191;-51
2024/01/13 12:41:18;;;;;;;0.00;0.00;;;;;;;2.42;100.00;99515.56;5093576;28;20223;-52
2024/01/13 12:44:08;;;;;;;0.00;0.00;;;;;;;2.36;100.00;99516.56;5076747;28;20208;-51
2024/01/13 12:46:59;;;;;;;0.10;0.10;;;;;;;2.39;100.00;99519.09;5074219;28;20242;-51
2024/01/13 12:49:46;;;;;;;0.10;0.10;;;;;;;2.17;100.00;99524.00;5094030;28;20673;-51
2024/01/13 12:52:34;;;;;;;0.10;0.10;;;;;;;2.12;100.00;99541.53;5092867;28;20191;-51
2024/01/13 12:55:23;;;;;;;0.10;0.10;;;;;;;2.01;100.00;99539.16;5093811;28;20207;-52
2024/01/13 12:58:10;;;;;;;0.10;0.10;;;;;;;1.97;100.00;99534.06;5094445;28;20186;-51
2024/01/13 13:01:00;;;;;;;0.10;0.10;;;;;;;1.94;100.00;99534.13;5094300;28;20202;-51
2024/01/13 13:03:47;;;;;;;0.10;0.10;;;;;;;1.81;100.00;99544.00;5094255;28;20261;-51
2024/01/13 13:06:35;;;;;;;0.10;0.10;;;;;;;1.80;100.00;99524.00;5092068;28;20256;-51
2024/01/13 13:09:22;;;;;;;0.10;0.10;;;;;;;1.97;100.00;99532.31;5093699;28;20190;-51